Terminal Aerodrome Forecast
Issued by NWS

Home | Current Version | Previous Version | Text Only | Print | Product List | Glossary On
Versions: 1 2 3 4 5 6 7 8 9 10 11
250
FTUS44 KJAN 230535
TAFHKS
TAF
KHKS 230535Z 2306/2406 32006KT P6SM VCSH SCT010 BKN050
     FM230800 33008KT P6SM BKN015 BKN090
     FM232000 33010G22KT P6SM BKN025
     FM240200 33005KT P6SM SCT050 SCT250=

USA.gov is the U.S. government's official web portal to all federal, state and local government web resources and services.